Time;durP1;ratioP1;P1;durP2;ratioP2;P2;SDS_P1;SDS_P2;PMS_P1;PMS_P2;Temp;Humidity;BMP_temperature;BMP_pressure;BME280_temperature;BME280_humidity;BME280_pressure;Samples;Min_cycle;Max_cycle;Signal;HPM_P1;HPM_P2
2023/04/20 00:01:03;;;;;;;10.32;6.50;;;4.70;99.90;;;;;;5003650;28;20517;-32
2023/04/20 00:03:31;;;;;;;6.53;5.20;;;4.70;99.90;;;;;;5004443;28;20038;-33
2023/04/20 00:06:00;;;;;;;9.32;5.70;;;4.80;99.90;;;;;;5006492;28;20033;-33
2023/04/20 00:08:26;;;;;;;7.38;5.43;;;4.70;99.90;;;;;;5005218;28;20096;-32
2023/04/20 00:10:52;;;;;;;7.50;4.88;;;4.70;99.90;;;;;;5004256;28;20042;-33
2023/04/20 00:13:17;;;;;;;6.72;4.95;;;4.80;99.90;;;;;;5004624;28;20464;-32
2023/04/20 00:15:43;;;;;;;10.32;5.07;;;4.80;99.90;;;;;;5003641;28;20038;-32
2023/04/20 00:18:08;;;;;;;8.85;4.82;;;4.80;99.90;;;;;;5005194;28;20057;-32
2023/04/20 00:20:34;;;;;;;5.88;4.60;;;4.80;99.90;;;;;;5005940;28;20076;-32
2023/04/20 00:23:00;;;;;;;7.32;4.85;;;4.80;99.90;;;;;;5006476;28;20030;-32
2023/04/20 00:25:26;;;;;;;8.05;4.88;;;4.80;99.90;;;;;;5005551;28;20030;-32
2023/04/20 00:27:51;;;;;;;8.45;5.60;;;4.80;99.90;;;;;;5006173;28;20407;-33
2023/04/20 00:30:17;;;;;;;7.35;5.22;;;4.70;99.90;;;;;;5004606;28;20072;-32
2023/04/20 00:32:42;;;;;;;9.25;5.90;;;4.70;99.90;;;;;;5005864;28;20100;-32
2023/04/20 00:35:08;;;;;;;7.53;5.25;;;4.70;99.90;;;;;;5006517;28;20018;-32
2023/04/20 00:37:34;;;;;;;11.88;6.35;;;4.60;99.90;;;;;;5005658;28;20048;-33
2023/04/20 00:40:00;;;;;;;11.55;6.85;;;4.70;99.90;;;;;;5008934;28;20399;-32
2023/04/20 00:42:25;;;;;;;12.00;7.00;;;4.60;99.90;;;;;;5008801;28;20048;-33
2023/04/20 00:44:51;;;;;;;11.63;7.40;;;4.70;99.90;;;;;;5008021;28;20037;-34
2023/04/20 00:47:17;;;;;;;13.02;7.35;;;4.70;99.90;;;;;;5008168;28;20096;-33
2023/04/20 00:49:42;;;;;;;14.38;6.80;;;4.70;99.90;;;;;;5008226;28;20080;-32
2023/04/20 00:52:08;;;;;;;10.45;6.32;;;4.80;99.90;;;;;;5007669;28;20018;-33
2023/04/20 00:54:34;;;;;;;12.13;6.88;;;4.80;99.90;;;;;;5006872;28;20033;-32
2023/04/20 00:57:01;;;;;;;9.25;6.13;;;4.80;99.90;;;;;;5007802;28;20451;-32
2023/04/20 00:59:27;;;;;;;11.73;6.63;;;4.80;99.90;;;;;;5007326;28;20084;-32
2023/04/20 01:01:52;;;;;;;11.07;6.78;;;4.80;99.90;;;;;;5009078;28;20507;-31
2023/04/20 01:04:18;;;;;;;12.48;6.95;;;4.80;99.90;;;;;;5005375;28;20064;-31
2023/04/20 01:06:44;;;;;;;9.88;6.35;;;4.80;99.90;;;;;;5008236;28;20030;-31
2023/04/20 01:09:11;;;;;;;11.90;7.20;;;4.80;99.90;;;;;;5008183;28;20064;-31
2023/04/20 01:11:37;;;;;;;12.95;6.95;;;4.70;99.90;;;;;;5008955;28;20064;-31
2023/04/20 01:14:02;;;;;;;12.15;7.03;;;4.80;99.90;;;;;;5006704;28;20025;-31
2023/04/20 01:16:28;;;;;;;12.20;7.38;;;4.90;99.90;;;;;;5009931;28;20086;-31
2023/04/20 01:18:53;;;;;;;13.32;7.80;;;4.80;99.90;;;;;;5007960;28;20025;-31
2023/04/20 01:21:22;;;;;;;14.07;7.75;;;4.80;99.90;;;;;;5006661;28;20033;-31
2023/04/20 01:23:49;;;;;;;13.32;8.77;;;4.80;99.90;;;;;;5004351;28;20041;-31
2023/04/20 01:26:17;;;;;;;11.65;7.35;;;4.80;99.90;;;;;;5006871;28;20060;-31
2023/04/20 01:28:43;;;;;;;17.42;9.02;;;4.70;99.90;;;;;;5006038;28;20034;-30
2023/04/20 01:31:10;;;;;;;13.00;7.72;;;4.70;99.90;;;;;;5005214;28;20049;-31
2023/04/20 01:33:36;;;;;;;13.32;7.60;;;4.70;99.90;;;;;;5008968;28;20092;-31
2023/04/20 01:36:02;;;;;;;12.10;7.13;;;4.70;99.90;;;;;;5003960;28;20050;-32
2023/04/20 01:38:30;;;;;;;12.70;7.45;;;4.70;99.90;;;;;;5006987;28;20029;-31
2023/04/20 01:40:57;;;;;;;9.45;6.20;;;4.70;99.90;;;;;;5008539;28;20034;-32
2023/04/20 01:43:23;;;;;;;9.02;6.45;;;4.80;99.90;;;;;;5006780;28;20226;-31
2023/04/20 01:45:49;;;;;;;9.00;6.03;;;4.90;99.90;;;;;;5006900;28;20479;-31
2023/04/20 01:48:15;;;;;;;10.00;6.07;;;4.90;99.90;;;;;;5005732;28;20092;-31
2023/04/20 01:50:40;;;;;;;11.18;7.00;;;4.90;99.90;;;;;;5008161;28;20551;-31
2023/04/20 01:53:06;;;;;;;11.43;6.75;;;4.90;99.90;;;;;;5007982;28;20083;-30
2023/04/20 01:55:32;;;;;;;14.02;7.18;;;4.80;99.90;;;;;;5005475;28;20042;-31
2023/04/20 01:57:58;;;;;;;10.00;7.00;;;4.70;99.90;;;;;;5008264;28;20463;-31
2023/04/20 02:00:24;;;;;;;14.10;7.80;;;4.80;99.90;;;;;;5004988;28;20032;-31
2023/04/20 02:02:49;;;;;;;13.30;8.23;;;4.80;99.90;;;;;;5007367;28;20304;-31
2023/04/20 02:05:15;;;;;;;11.23;6.82;;;4.70;99.90;;;;;;5007956;28;20061;-31
2023/04/20 02:07:40;;;;;;;11.75;7.88;;;4.60;99.90;;;;;;5003187;28;20032;-31
2023/04/20 02:10:07;;;;;;;12.23;7.70;;;4.60;99.90;;;;;;5008446;28;20454;-31
2023/04/20 02:12:32;;;;;;;11.80;7.20;;;4.60;99.90;;;;;;5005894;28;20091;-31
2023/04/20 02:14:58;;;;;;;14.52;8.45;;;4.60;99.90;;;;;;5006387;28;20479;-31
2023/04/20 02:17:23;;;;;;;12.02;7.93;;;4.60;99.90;;;;;;5006859;28;20036;-31
2023/04/20 02:19:49;;;;;;;13.48;7.57;;;4.60;99.90;;;;;;5006701;28;20026;-31
2023/04/20 02:22:15;;;;;;;15.90;8.82;;;4.60;99.90;;;;;;5004888;28;20036;-30
2023/04/20 02:24:42;;;;;;;19.08;9.70;;;4.60;99.90;;;;;;5007150;28;20028;-30
2023/04/20 02:27:08;;;;;;;14.57;9.52;;;4.60;99.90;;;;;;5002721;28;20034;-31
2023/04/20 02:29:34;;;;;;;14.90;8.50;;;4.60;99.90;;;;;;5005642;28;20057;-31
2023/04/20 02:32:00;;;;;;;13.68;8.57;;;4.60;99.90;;;;;;5007185;28;20042;-31
2023/04/20 02:34:25;;;;;;;16.77;9.63;;;4.70;99.90;;;;;;5008479;28;20037;-31
2023/04/20 02:36:51;;;;;;;16.33;8.88;;;4.60;99.90;;;;;;5007062;28;20392;-31
2023/04/20 02:39:17;;;;;;;15.25;9.15;;;4.50;99.90;;;;;;5015494;28;20105;-31
2023/04/20 02:41:43;;;;;;;12.02;8.13;;;4.50;99.90;;;;;;5006561;28;20511;-31
2023/04/20 02:44:08;;;;;;;18.33;9.32;;;4.40;99.90;;;;;;5003749;28;20053;-31
2023/04/20 02:46:34;;;;;;;16.02;9.13;;;4.30;99.90;;;;;;5006795;28;20026;-31
2023/04/20 02:49:00;;;;;;;19.40;10.07;;;4.30;99.90;;;;;;5006872;28;20045;-31
2023/04/20 02:51:26;;;;;;;16.80;9.38;;;4.20;99.90;;;;;;5006359;28;20092;-31
2023/04/20 02:53:51;;;;;;;18.00;9.98;;;4.20;99.90;;;;;;5000760;28;20069;-31
2023/04/20 02:56:17;;;;;;;15.55;9.05;;;4.20;99.90;;;;;;5007335;28;20133;-31
2023/04/20 02:58:43;;;;;;;15.10;9.75;;;4.10;99.90;;;;;;5004692;28;20033;-31
2023/04/20 03:01:09;;;;;;;13.70;9.13;;;4.10;99.90;;;;;;5002605;28;21500;-31
2023/04/20 03:03:34;;;;;;;17.70;11.00;;;4.10;99.90;;;;;;5005018;28;20113;-31
2023/04/20 03:06:00;;;;;;;17.80;9.15;;;4.10;99.90;;;;;;5005503;28;20483;-31
2023/04/20 03:08:26;;;;;;;15.30;9.48;;;4.10;99.90;;;;;;5004116;28;20041;-31
2023/04/20 03:10:51;;;;;;;17.25;9.93;;;4.10;99.90;;;;;;5003595;28;20038;-31
2023/04/20 03:13:17;;;;;;;15.70;9.52;;;4.10;99.90;;;;;;5020762;28;20732;-31
2023/04/20 03:15:43;;;;;;;17.10;10.23;;;4.00;99.90;;;;;;5005389;28;20055;-31
2023/04/20 03:18:08;;;;;;;14.95;9.23;;;4.00;99.90;;;;;;5003969;28;20059;-31
2023/04/20 03:20:34;;;;;;;16.65;10.07;;;4.00;99.90;;;;;;5006266;28;20033;-31
2023/04/20 03:23:00;;;;;;;14.90;9.48;;;4.00;99.90;;;;;;5006131;28;20175;-31
2023/04/20 03:25:26;;;;;;;20.27;9.68;;;4.00;99.90;;;;;;5006293;28;20073;-31
2023/04/20 03:27:51;;;;;;;18.50;10.02;;;4.10;99.90;;;;;;5007953;28;20041;-31
2023/04/20 03:30:17;;;;;;;14.45;9.82;;;4.10;99.90;;;;;;5005395;28;20557;-31
2023/04/20 03:32:43;;;;;;;15.55;9.70;;;4.10;99.90;;;;;;5006279;28;20037;-31
2023/04/20 03:35:09;;;;;;;12.65;8.70;;;4.10;99.90;;;;;;5006266;28;20034;-32
2023/04/20 03:37:36;;;;;;;13.10;8.10;;;4.00;99.90;;;;;;5006864;28;20060;-31
2023/04/20 03:40:02;;;;;;;16.42;9.50;;;3.90;99.90;;;;;;5004530;28;20113;-32
2023/04/20 03:42:29;;;;;;;18.00;9.60;;;3.90;99.90;;;;;;5003882;28;20152;-31
2023/04/20 03:44:54;;;;;;;16.52;9.32;;;3.90;99.90;;;;;;5006767;28;20022;-33
2023/04/20 03:47:20;;;;;;;16.48;9.75;;;3.90;99.90;;;;;;5001603;28;20034;-30
2023/04/20 03:49:46;;;;;;;16.02;9.35;;;3.90;99.90;;;;;;5003691;28;20113;-31
2023/04/20 03:52:11;;;;;;;16.88;9.57;;;3.90;99.90;;;;;;5001184;28;20038;-31
2023/04/20 03:54:37;;;;;;;16.52;9.02;;;3.90;99.90;;;;;;4999860;28;20479;-31
2023/04/20 03:57:02;;;;;;;20.00;9.65;;;3.90;99.90;;;;;;4999885;28;20041;-31
2023/04/20 03:59:28;;;;;;;15.10;9.98;;;3.90;99.90;;;;;;5001428;28;20530;-30
2023/04/20 04:01:53;;;;;;;14.32;9.88;;;4.00;99.90;;;;;;4998652;28;20066;-31
2023/04/20 04:04:19;;;;;;;14.55;8.88;;;4.00;99.90;;;;;;5002567;28;20034;-32
2023/04/20 04:06:44;;;;;;;18.63;9.93;;;4.00;99.90;;;;;;5002037;28;20030;-32
2023/04/20 04:09:10;;;;;;;12.88;8.70;;;4.00;99.90;;;;;;5002609;28;20096;-30
2023/04/20 04:11:36;;;;;;;15.95;9.68;;;4.00;99.90;;;;;;5001759;28;21784;-31
2023/04/20 04:14:03;;;;;;;14.02;8.98;;;4.00;99.90;;;;;;5006280;28;20497;-31
2023/04/20 04:16:30;;;;;;;13.90;9.73;;;4.10;99.90;;;;;;5004686;28;20109;-31
2023/04/20 04:18:55;;;;;;;21.23;9.93;;;4.10;99.90;;;;;;5006165;28;20018;-31
2023/04/20 04:21:21;;;;;;;18.52;11.00;;;4.20;99.90;;;;;;5004149;28;20561;-31
2023/04/20 04:23:48;;;;;;;17.38;10.45;;;4.30;99.90;;;;;;5003577;28;20057;-32
2023/04/20 04:26:14;;;;;;;16.10;10.85;;;4.30;99.90;;;;;;5007540;28;20084;-32
2023/04/20 04:28:39;;;;;;;14.90;9.65;;;4.30;99.90;;;;;;5019320;28;20471;-32
2023/04/20 04:31:05;;;;;;;16.17;10.23;;;4.30;99.90;;;;;;5006545;28;20034;-31
2023/04/20 04:33:33;;;;;;;15.48;9.48;;;4.40;99.90;;;;;;5003636;28;20049;-31
2023/04/20 04:36:00;;;;;;;16.40;9.98;;;4.40;99.90;;;;;;5007975;28;20045;-31
2023/04/20 04:38:26;;;;;;;17.70;10.35;;;4.40;99.90;;;;;;5002748;28;20014;-31
2023/04/20 04:40:52;;;;;;;15.75;9.35;;;4.40;99.90;;;;;;5003222;28;20545;-31
2023/04/20 04:43:18;;;;;;;15.80;9.90;;;4.30;99.90;;;;;;5005032;28;20030;-29
2023/04/20 04:45:44;;;;;;;18.17;10.13;;;4.30;99.90;;;;;;5003230;28;20034;-29
2023/04/20 04:48:11;;;;;;;15.52;10.20;;;4.30;99.90;;;;;;5003862;28;20049;-29
2023/04/20 04:50:38;;;;;;;16.63;9.15;;;4.30;99.90;;;;;;5002571;28;20076;-30
2023/04/20 04:53:03;;;;;;;14.02;10.02;;;4.30;99.90;;;;;;5004775;28;20030;-30
2023/04/20 04:55:29;;;;;;;17.65;9.80;;;4.30;99.90;;;;;;5003365;28;20030;-30
2023/04/20 04:57:56;;;;;;;17.27;10.30;;;4.40;99.90;;;;;;5020086;28;20034;-29
2023/04/20 05:00:22;;;;;;;16.77;10.88;;;4.40;99.90;;;;;;5004163;28;20025;-30
2023/04/20 05:02:48;;;;;;;15.20;9.60;;;4.40;99.90;;;;;;5006019;28;20026;-30
2023/04/20 05:05:13;;;;;;;17.23;10.77;;;4.40;99.90;;;;;;5006120;28;20026;-30
2023/04/20 05:07:39;;;;;;;15.27;9.77;;;4.50;99.90;;;;;;5007677;28;20037;-29
2023/04/20 05:10:06;;;;;;;14.65;9.45;;;4.50;99.90;;;;;;5008043;28;20041;-30
2023/04/20 05:12:32;;;;;;;15.77;9.90;;;4.50;99.90;;;;;;5007069;28;20156;-29
2023/04/20 05:14:57;;;;;;;16.33;10.30;;;4.50;99.90;;;;;;5006984;28;20148;-29
2023/04/20 05:17:23;;;;;;;17.73;10.05;;;4.50;99.90;;;;;;5007303;28;20041;-30
2023/04/20 05:19:49;;;;;;;15.63;9.75;;;4.50;99.90;;;;;;5008982;28;20030;-30
2023/04/20 05:22:14;;;;;;;18.25;10.43;;;4.50;99.90;;;;;;5007807;28;20057;-29
2023/04/20 05:24:41;;;;;;;15.15;9.98;;;4.60;99.90;;;;;;5007768;28;20026;-29
2023/04/20 05:27:08;;;;;;;16.65;11.13;;;4.60;99.90;;;;;;5006565;28;20428;-30
2023/04/20 05:29:33;;;;;;;18.55;11.23;;;4.60;99.90;;;;;;5003989;28;20049;-30
2023/04/20 05:31:59;;;;;;;15.00;10.35;;;4.60;99.90;;;;;;5001019;28;20037;-30
2023/04/20 05:34:25;;;;;;;19.27;10.77;;;4.60;99.90;;;;;;5004781;28;20116;-30
2023/04/20 05:36:51;;;;;;;18.52;11.77;;;4.70;99.90;;;;;;5002233;28;20614;-30
2023/04/20 05:39:17;;;;;;;22.58;11.98;;;4.70;99.90;;;;;;5003370;28;20030;-29
2023/04/20 05:41:43;;;;;;;18.73;11.50;;;4.80;99.90;;;;;;5000621;28;20033;-30
2023/04/20 05:44:08;;;;;;;21.42;12.13;;;4.70;99.90;;;;;;5004103;28;20085;-30
2023/04/20 05:46:34;;;;;;;24.02;12.40;;;4.70;99.90;;;;;;5005620;28;20038;-30
2023/04/20 05:48:59;;;;;;;22.42;11.23;;;4.70;99.90;;;;;;5001865;28;20423;-30
2023/04/20 05:51:29;;;;;;;20.90;11.77;;;4.80;99.90;;;;;;5004407;28;20033;-29
2023/04/20 05:53:54;;;;;;;21.60;12.15;;;4.80;99.90;;;;;;5018267;28;20034;-30
2023/04/20 05:56:20;;;;;;;21.52;12.00;;;4.80;99.90;;;;;;5004883;28;20064;-30
2023/04/20 05:58:46;;;;;;;20.77;11.57;;;4.80;99.90;;;;;;5002245;28;20419;-30
2023/04/20 06:01:12;;;;;;;17.73;11.85;;;4.90;99.90;;;;;;5003287;28;20510;-29
2023/04/20 06:03:38;;;;;;;21.33;12.63;;;4.80;99.90;;;;;;5005175;28;20022;-32
2023/04/20 06:06:03;;;;;;;20.95;11.98;;;4.90;99.90;;;;;;5004164;28;20499;-30
2023/04/20 06:08:29;;;;;;;21.70;11.75;;;4.90;99.90;;;;;;5005325;28;20033;-30
2023/04/20 06:10:56;;;;;;;23.13;13.02;;;4.90;99.90;;;;;;5006462;28;20435;-30
2023/04/20 06:13:21;;;;;;;24.30;12.82;;;4.90;99.90;;;;;;5000797;28;20029;-30
2023/04/20 06:15:47;;;;;;;20.85;11.93;;;4.80;99.90;;;;;;4999303;28;20036;-30
2023/04/20 06:18:12;;;;;;;21.02;11.68;;;4.90;99.90;;;;;;5003236;28;20534;-30
2023/04/20 06:20:39;;;;;;;20.60;12.30;;;4.80;99.90;;;;;;5002757;28;20113;-31
2023/04/20 06:23:05;;;;;;;23.52;12.88;;;4.80;99.90;;;;;;5005161;28;20036;-30
2023/04/20 06:25:30;;;;;;;20.90;11.77;;;4.90;99.90;;;;;;5003487;28;20029;-30
2023/04/20 06:27:56;;;;;;;23.23;12.27;;;4.90;99.90;;;;;;5006806;28;20452;-30
2023/04/20 06:30:22;;;;;;;20.23;11.63;;;4.80;99.90;;;;;;5000552;28;20276;-30
2023/04/20 06:32:47;;;;;;;22.38;12.80;;;4.70;99.90;;;;;;5001953;28;20491;-30
2023/04/20 06:35:13;;;;;;;22.40;13.15;;;4.60;99.90;;;;;;5004210;28;20100;-30
2023/04/20 06:37:39;;;;;;;20.65;12.13;;;4.60;99.90;;;;;;5004195;28;20057;-30
2023/04/20 06:40:08;;;;;;;23.10;12.02;;;4.60;99.90;;;;;;5004529;28;20036;-30
2023/04/20 06:42:35;;;;;;;20.65;12.52;;;4.60;99.90;;;;;;4999183;28;21112;-30
2023/04/20 06:45:00;;;;;;;21.60;13.60;;;4.70;99.90;;;;;;5001265;28;20075;-30
2023/04/20 06:47:32;;;;;;;23.63;14.32;;;4.70;99.90;;;;;;5003245;28;20038;-30
2023/04/20 06:49:59;;;;;;;21.70;14.23;;;4.70;99.90;;;;;;5017681;28;20034;-30
2023/04/20 06:52:25;;;;;;;23.35;12.68;;;4.70;99.90;;;;;;5003147;28;20359;-30
2023/04/20 06:54:51;;;;;;;19.55;11.88;;;4.70;99.90;;;;;;5005211;28;20507;-30
2023/04/20 06:57:17;;;;;;;15.10;8.90;;;4.80;99.90;;;;;;5004798;28;20068;-29
2023/04/20 06:59:42;;;;;;;13.40;8.85;;;4.80;99.90;;;;;;5002923;28;20542;-30
2023/04/20 07:02:08;;;;;;;13.30;8.35;;;4.90;99.90;;;;;;5005021;28;20055;-31
2023/04/20 07:04:33;;;;;;;11.55;6.82;;;4.90;99.90;;;;;;5003854;28;20022;-30
2023/04/20 07:06:59;;;;;;;9.57;7.50;;;4.90;99.90;;;;;;5004422;28;20033;-30
2023/04/20 07:09:25;;;;;;;8.68;6.65;;;4.90;99.90;;;;;;5003701;28;20083;-31
2023/04/20 07:11:51;;;;;;;9.32;6.65;;;5.00;99.90;;;;;;5000812;28;20088;-30
2023/04/20 07:14:17;;;;;;;10.23;6.72;;;5.00;99.90;;;;;;5004990;28;20056;-30
2023/04/20 07:16:43;;;;;;;8.18;6.15;;;4.90;99.90;;;;;;5001692;28;20584;-29
2023/04/20 07:19:08;;;;;;;8.98;6.20;;;4.90;99.90;;;;;;5004727;28;20034;-29
2023/04/20 07:21:34;;;;;;;9.38;6.43;;;5.00;99.90;;;;;;5004886;28;20066;-30
2023/04/20 07:24:00;;;;;;;9.07;6.32;;;5.00;99.90;;;;;;4999284;28;20538;-30
2023/04/20 07:26:26;;;;;;;7.00;5.30;;;5.10;99.90;;;;;;5000416;28;20025;-29
2023/04/20 07:28:52;;;;;;;9.43;5.60;;;5.10;99.90;;;;;;5001903;28;20040;-30
2023/04/20 07:31:17;;;;;;;8.82;5.55;;;5.10;99.90;;;;;;5002559;28;20050;-30
2023/04/20 07:33:43;;;;;;;8.60;5.47;;;5.20;99.90;;;;;;5001430;28;20117;-30
2023/04/20 07:36:09;;;;;;;8.70;5.55;;;5.20;99.90;;;;;;5005284;28;20038;-30
2023/04/20 07:38:35;;;;;;;9.32;6.25;;;5.20;99.90;;;;;;5001689;28;20026;-30
2023/04/20 07:41:02;;;;;;;8.85;5.97;;;5.20;99.90;;;;;;5003380;28;20616;-31
2023/04/20 07:43:27;;;;;;;10.98;6.45;;;5.30;99.90;;;;;;5004608;28;20034;-30
2023/04/20 07:45:53;;;;;;;7.65;5.68;;;5.30;99.90;;;;;;5002689;28;20462;-31
2023/04/20 07:48:18;;;;;;;6.38;4.93;;;5.30;99.90;;;;;;5005810;28;20065;-30
2023/04/20 07:50:45;;;;;;;12.05;8.07;;;5.30;99.90;;;;;;5003734;28;20084;-31
2023/04/20 07:53:11;;;;;;;17.38;10.98;;;5.40;99.90;;;;;;4999655;28;20041;-30
2023/04/20 07:55:37;;;;;;;17.10;11.00;;;5.30;99.90;;;;;;5006094;28;20574;-30
2023/04/20 07:58:02;;;;;;;12.23;8.05;;;5.30;99.90;;;;;;5019291;28;20560;-31
2023/04/20 08:00:28;;;;;;;5.28;4.28;;;5.30;99.90;;;;;;5005348;28;20101;-30
2023/04/20 08:02:54;;;;;;;6.93;4.93;;;5.30;99.90;;;;;;5003594;28;20030;-30
2023/04/20 08:05:19;;;;;;;6.00;4.15;;;5.30;99.90;;;;;;5005061;28;20113;-30
2023/04/20 08:07:45;;;;;;;6.70;4.40;;;5.30;99.90;;;;;;5005113;28;20109;-30
2023/04/20 08:10:11;;;;;;;4.35;3.75;;;5.30;99.90;;;;;;5004878;28;20034;-31
2023/04/20 08:12:38;;;;;;;5.40;4.15;;;5.40;99.90;;;;;;5005155;28;20044;-30
2023/04/20 08:15:05;;;;;;;6.40;4.60;;;5.40;99.90;;;;;;5003188;28;20531;-31
2023/04/20 08:17:31;;;;;;;7.13;5.00;;;5.40;99.90;;;;;;5004290;28;20029;-30
2023/04/20 08:19:57;;;;;;;6.93;5.30;;;5.40;99.90;;;;;;5004362;28;20064;-30
2023/04/20 08:22:28;;;;;;;8.70;4.90;;;5.30;99.90;;;;;;5002560;28;20050;-31
2023/04/20 08:24:55;;;;;;;8.38;5.47;;;5.30;99.90;;;;;;4998861;28;20029;-30
2023/04/20 08:27:21;;;;;;;7.95;5.30;;;5.40;99.90;;;;;;5003114;28;20092;-30
2023/04/20 08:29:47;;;;;;;8.00;5.25;;;5.40;99.90;;;;;;5000180;28;20046;-31
2023/04/20 08:32:12;;;;;;;6.75;4.88;;;5.50;99.90;;;;;;5002301;28;20045;-30
2023/04/20 08:34:38;;;;;;;6.15;4.75;;;5.40;99.90;;;;;;5003806;28;20342;-31
2023/04/20 08:37:04;;;;;;;6.03;4.80;;;5.40;99.90;;;;;;5000824;28;20080;-30
2023/04/20 08:39:31;;;;;;;6.25;4.28;;;5.40;99.90;;;;;;5001162;28;20471;-30
2023/04/20 08:41:57;;;;;;;6.45;4.97;;;5.40;99.90;;;;;;5003199;28;20085;-30
2023/04/20 08:44:23;;;;;;;5.28;4.40;;;5.40;99.90;;;;;;5000760;28;20065;-30
2023/04/20 08:46:50;;;;;;;5.03;4.22;;;5.40;99.90;;;;;;5004196;28;20026;-31
2023/04/20 08:49:16;;;;;;;6.15;4.35;;;5.40;99.90;;;;;;5001672;28;20155;-31
2023/04/20 08:51:43;;;;;;;5.25;4.00;;;5.50;99.90;;;;;;5001981;28;20037;-30
2023/04/20 08:54:10;;;;;;;6.95;4.60;;;5.50;99.90;;;;;;5000596;28;20042;-30
2023/04/20 08:56:40;;;;;;;5.28;3.95;;;5.60;99.90;;;;;;5004927;28;20025;-31
2023/04/20 08:59:09;;;;;;;5.85;4.32;;;5.60;99.90;;;;;;5003971;28;20037;-30
2023/04/20 09:01:35;;;;;;;4.80;3.63;;;5.50;99.90;;;;;;5007400;28;20041;-30
2023/04/20 09:04:01;;;;;;;5.32;4.32;;;5.50;99.90;;;;;;5006326;28;20025;-30
2023/04/20 09:06:27;;;;;;;4.72;3.53;;;5.60;99.90;;;;;;5003965;28;20030;-30
2023/04/20 09:08:53;;;;;;;3.70;3.03;;;5.60;99.90;;;;;;5008713;28;20045;-30
2023/04/20 09:11:27;;;;;;;3.10;2.80;;;5.60;99.90;;;;;;5006118;28;20038;-30
2023/04/20 09:14:11;;;;;;;3.83;3.03;;;5.60;99.90;;;;;;5008398;28;20038;-30
2023/04/20 09:16:46;;;;;;;3.47;3.17;;;5.60;99.90;;;;;;5004205;28;20034;-30
2023/04/20 09:19:13;;;;;;;4.18;2.95;;;5.70;99.90;;;;;;5004190;28;20494;-30
2023/04/20 09:21:51;;;;;;;2.97;2.42;;;5.80;99.90;;;;;;5002369;28;20060;-30
2023/04/20 09:24:18;;;;;;;3.67;2.67;;;5.80;99.90;;;;;;5003128;28;20387;-30
2023/04/20 09:26:43;;;;;;;3.78;3.38;;;5.80;99.90;;;;;;5004771;28;20080;-30
2023/04/20 09:29:20;;;;;;;4.80;3.22;;;5.80;99.90;;;;;;5005557;28;20593;-30
2023/04/20 09:31:47;;;;;;;4.05;3.53;;;5.70;99.90;;;;;;5002291;28;20104;-30
2023/04/20 09:34:13;;;;;;;5.35;3.53;;;5.80;99.90;;;;;;5005608;28;20467;-30
2023/04/20 09:36:40;;;;;;;3.97;3.30;;;5.80;99.90;;;;;;5005366;28;20038;-30
2023/04/20 09:39:09;;;;;;;3.90;3.33;;;5.80;99.90;;;;;;5004235;28;20044;-30
2023/04/20 09:41:36;;;;;;;4.75;4.10;;;5.80;99.90;;;;;;5006950;28;20108;-31
2023/04/20 09:44:02;;;;;;;5.13;3.67;;;5.80;99.90;;;;;;5006125;28;20029;-31
2023/04/20 09:46:32;;;;;;;4.20;3.80;;;5.80;99.90;;;;;;5007364;28;20068;-30
2023/04/20 09:48:59;;;;;;;5.30;4.35;;;5.80;99.90;;;;;;5003052;28;20042;-30
2023/04/20 09:51:30;;;;;;;4.50;3.97;;;5.80;99.90;;;;;;5007506;28;20113;-30
2023/04/20 09:53:58;;;;;;;5.13;4.60;;;5.70;99.90;;;;;;5006077;28;20368;-30
2023/04/20 09:56:25;;;;;;;5.25;4.13;;;5.80;99.90;;;;;;5008455;28;20026;-31
2023/04/20 09:58:51;;;;;;;6.25;4.40;;;5.80;99.90;;;;;;5008673;28;20030;-30
2023/04/20 10:01:18;;;;;;;5.07;4.38;;;5.70;99.90;;;;;;5005441;28;20492;-30
2023/04/20 10:03:44;;;;;;;6.38;4.57;;;5.70;99.90;;;;;;5007902;28;20053;-30
2023/04/20 10:06:23;;;;;;;5.03;4.53;;;5.70;99.90;;;;;;5007213;28;20080;-31
2023/04/20 10:08:50;;;;;;;4.43;4.03;;;5.80;99.90;;;;;;4999777;28;20367;-30
2023/04/20 11:15:17;;;;;;;9.40;6.97;;;5.80;99.90;;;;;;4440399;28;20052;-30
2023/04/20 11:17:43;;;;;;;8.98;5.93;;;5.80;99.90;;;;;;4979512;28;20475;-30
2023/04/20 11:20:15;;;;;;;6.90;4.80;;;5.80;99.90;;;;;;4969985;28;20113;-31
2023/04/20 11:22:42;;;;;;;12.18;7.53;;;5.80;99.90;;;;;;4990129;28;20069;-30
2023/04/20 11:25:10;;;;;;;7.97;5.88;;;5.80;99.90;;;;;;4986619;28;20027;-30
2023/04/20 11:27:37;;;;;;;7.93;5.50;;;5.80;99.90;;;;;;4978304;28;20702;-30
2023/04/20 11:30:04;;;;;;;7.93;6.25;;;5.70;99.90;;;;;;4984067;28;20066;-30
2023/04/20 11:32:32;;;;;;;6.57;5.35;;;5.70;99.90;;;;;;4966005;28;20031;-30
2023/04/20 11:35:06;;;;;;;6.47;5.80;;;5.70;99.90;;;;;;4983826;28;20030;-29
2023/04/20 11:37:32;;;;;;;10.02;6.50;;;5.70;99.90;;;;;;4980563;28;20391;-31
2023/04/20 11:40:00;;;;;;;7.88;5.70;;;5.70;99.90;;;;;;4985651;28;20033;-30
2023/04/20 11:42:26;;;;;;;8.45;5.75;;;5.70;99.90;;;;;;4985252;28;20558;-29
2023/04/20 11:44:51;;;;;;;8.75;5.82;;;5.70;99.90;;;;;;4982759;28;20023;-30
2023/04/20 11:47:17;;;;;;;8.50;5.75;;;5.80;99.90;;;;;;4982017;28;20038;-30
2023/04/20 11:49:43;;;;;;;7.28;5.28;;;5.80;99.90;;;;;;4982202;28;20136;-30
2023/04/20 11:52:08;;;;;;;7.88;4.70;;;5.80;99.90;;;;;;4985978;28;20419;-30
2023/04/20 11:54:34;;;;;;;6.15;5.03;;;5.90;99.90;;;;;;4981492;28;20129;-30
2023/04/20 11:57:00;;;;;;;7.43;5.35;;;5.90;99.90;;;;;;4996149;28;20034;-30
2023/04/20 11:59:25;;;;;;;7.93;5.75;;;6.00;99.90;;;;;;4985682;28;20026;-30
2023/04/20 12:01:51;;;;;;;8.95;5.20;;;6.00;99.90;;;;;;4979614;28;20031;-29
2023/04/20 12:04:17;;;;;;;8.65;5.57;;;6.00;99.90;;;;;;4983191;28;20034;-30
2023/04/20 12:06:43;;;;;;;7.85;6.03;;;6.10;99.90;;;;;;4984008;28;20606;-30
2023/04/20 12:09:08;;;;;;;7.40;5.60;;;6.30;99.90;;;;;;4958982;28;20443;-31
2023/04/20 12:11:34;;;;;;;9.98;5.38;;;6.40;99.90;;;;;;4983269;28;20041;-31
2023/04/20 12:13:59;;;;;;;6.07;5.05;;;6.40;99.90;;;;;;4989253;28;20384;-31
2023/04/20 12:16:25;;;;;;;8.95;5.85;;;6.40;99.90;;;;;;5003538;28;20069;-30
2023/04/20 12:18:51;;;;;;;7.60;5.82;;;6.40;99.90;;;;;;5004217;28;20072;-31
2023/04/20 12:21:17;;;;;;;9.98;6.18;;;6.40;99.90;;;;;;5005076;28;20038;-30
2023/04/20 12:23:43;;;;;;;9.88;5.90;;;6.40;99.90;;;;;;5003957;28;20030;-30
2023/04/20 12:26:09;;;;;;;7.53;5.65;;;6.50;99.90;;;;;;5009184;28;20403;-30
2023/04/20 12:28:34;;;;;;;6.60;4.95;;;6.40;99.90;;;;;;5001859;28;20517;-30
2023/04/20 12:31:01;;;;;;;7.45;5.38;;;6.40;99.90;;;;;;4999838;28;20041;-31
2023/04/20 12:33:27;;;;;;;6.93;5.78;;;6.40;99.90;;;;;;5010304;28;20109;-30
2023/04/20 12:35:53;;;;;;;7.05;5.25;;;6.40;99.90;;;;;;5009597;28;20033;-30
2023/04/20 12:38:18;;;;;;;7.68;5.35;;;6.50;99.90;;;;;;5006485;28;20022;-30
2023/04/20 12:40:44;;;;;;;5.88;5.07;;;6.50;99.90;;;;;;5006930;28;20036;-30
2023/04/20 12:43:09;;;;;;;8.18;5.93;;;6.60;99.90;;;;;;5006845;28;20097;-30
2023/04/20 12:45:35;;;;;;;7.25;4.90;;;6.60;99.90;;;;;;5006244;28;20029;-29
2023/04/20 12:48:01;;;;;;;5.35;4.65;;;6.60;99.90;;;;;;5006871;28;20581;-30
2023/04/20 12:50:27;;;;;;;6.95;5.15;;;6.60;99.90;;;;;;5007987;28;20840;-30
2023/04/20 12:52:54;;;;;;;6.07;5.30;;;6.60;99.90;;;;;;5011491;28;20034;-30
2023/04/20 12:55:21;;;;;;;8.60;5.40;;;6.60;99.90;;;;;;5007049;28;20574;-30
2023/04/20 12:57:47;;;;;;;6.28;5.00;;;6.60;99.90;;;;;;5007074;28;20041;-30
2023/04/20 13:00:13;;;;;;;13.15;6.75;;;6.50;99.90;;;;;;5003051;28;20071;-29
2023/04/20 13:02:39;;;;;;;7.97;5.55;;;6.50;99.90;;;;;;5008142;28;20030;-30
2023/04/20 13:05:05;;;;;;;5.82;4.75;;;6.60;99.90;;;;;;5004105;28;20026;-31
2023/04/20 13:07:31;;;;;;;5.95;5.35;;;6.50;99.90;;;;;;5015869;28;20045;-29
2023/04/20 13:09:57;;;;;;;5.80;4.85;;;6.60;99.90;;;;;;5008223;28;20088;-30
2023/04/20 13:12:23;;;;;;;10.93;5.65;;;6.60;99.90;;;;;;5004502;28;20234;-31
2023/04/20 13:14:50;;;;;;;8.52;5.90;;;6.60;99.90;;;;;;5001858;28;20132;-30
2023/04/20 13:17:15;;;;;;;8.13;6.63;;;6.60;99.90;;;;;;4984337;28;20038;-30
2023/04/20 13:19:41;;;;;;;8.35;5.50;;;6.70;99.90;;;;;;4988489;28;20093;-29
2023/04/20 13:22:06;;;;;;;8.23;5.68;;;6.70;99.90;;;;;;4984985;28;20117;-30
2023/04/20 13:24:32;;;;;;;7.00;5.65;;;6.70;99.90;;;;;;4990949;28;20054;-30
2023/04/20 13:26:58;;;;;;;5.95;5.32;;;6.60;99.90;;;;;;4984833;28;20034;-30
2023/04/20 13:29:24;;;;;;;10.70;8.98;;;6.70;99.90;;;;;;4986834;28;20030;-30
2023/04/20 13:31:50;;;;;;;6.93;5.97;;;6.70;99.90;;;;;;4988394;28;20045;-30
2023/04/20 13:34:16;;;;;;;8.65;5.53;;;6.70;99.90;;;;;;4985278;28;20034;-29
2023/04/20 13:36:42;;;;;;;7.15;5.20;;;6.70;99.90;;;;;;4985750;28;20030;-30
2023/04/20 13:39:09;;;;;;;7.55;6.32;;;6.70;99.90;;;;;;4987984;28;20035;-31
2023/04/20 13:41:35;;;;;;;9.15;5.65;;;6.80;99.90;;;;;;4985044;28;20034;-31
2023/04/20 13:44:01;;;;;;;6.07;5.45;;;6.80;99.90;;;;;;4985841;28;20860;-30
2023/04/20 13:46:27;;;;;;;8.35;5.93;;;6.80;99.90;;;;;;4986690;28;20505;-31
2023/04/20 13:48:53;;;;;;;8.15;5.78;;;6.90;99.90;;;;;;4988919;28;20073;-30